石垣島の過去48時間の天気

石垣島 (Ishigaki jima)

現在時刻: 9/23 06:25 JST (9/22 21:25 UTC) 以下の時間は現地時間です。

過去48時間のMETAR気象情報
時間 風向 風速(m/s) 視程 気温(℃) 湿度(%) 気圧(hPa) 天気現象
23 06:00 3 10km以上 24 94 1013
22 20:00 3 10km以上 24 94 1013 弱い雨
22 19:00 3 10km以上 24 89 1012 弱い雨
22 18:00 2 10km以上 24 94 1011
22 17:00 3 10km以上 25 83 1010
22 16:00 3 10km以上 25 83 1009
22 15:00 4 10km以上 26 79 1009
22 14:00 北北西 5 10km以上 26 79 1009
22 13:00 5 10km以上 27 79 1009
22 12:00 北北西 6 10km以上 28 74 1010
22 11:00 北北西 6 10km以上 27 74 1010
22 10:00 北西 6 10km以上 27 74 1010
22 09:00 北西 5 10km以上 27 74 1009
22 08:00 北西 3 10km以上 25 83 1008
22 07:00 北西 3 10km以上 25 83 1007
22 06:00 北西 4 10km以上 25 83 1006
ROIG 222100Z 35005KT 9999 FEW022 BKN060 24/23 Q1013
ROIG 221100Z 35006KT 320V020 9999 -RA FEW025 BKN040 24/23 Q1013
ROIG 221000Z 36006KT 330V050 9999 -RA FEW026 BKN050 24/22 Q1012
ROIG 220900Z 35004KT 320V030 9999 FEW027 BKN050 24/23 Q1011
ROIG 220800Z 35005KT 310V020 9999 FEW027 BKN050 25/22 Q1010
ROIG 220700Z 35005KT 300V030 9999 FEW028 BKN050 25/22 Q1009
ROIG 220600Z 35008KT 320V030 9999 FEW028 BKN050 26/22 Q1009
ROIG 220500Z 33009KT 300V020 9999 FEW028 BKN050 26/22 Q1009
ROIG 220400Z 35009KT 9999 FEW028 BKN090 27/23 Q1009
ROIG 220300Z 33011KT 270V010 9999 FEW030 SCT070 BKN/// 28/23 Q1010
ROIG 220200Z 33011KT 9999 SCT030 BKN060 27/22 Q1010
ROIG 220100Z 32011KT 290V360 9999 FEW030 SCT060 BKN150 27/22 Q1010
ROIG 220000Z 32010KT 280V350 9999 FEW028 BKN/// 27/22 Q1009
ROIG 212300Z 31006KT 270V350 9999 FEW028 BKN080 25/22 Q1008
ROIG 212200Z 32006KT 280V360 9999 SCT025 BKN/// 25/22 Q1007
ROIG 212100Z 32007KT 9999 FEW020 BKN040 25/22 Q1006